Terminal Aerodrome Forecast
Issued by NWS Miami, FL

Home | Current Version | Previous Version | Text Only | Print | Product List | Glossary On
Versions: 1 2 3 4 5 6 7 8 9 10 11 12 13 14 15 16 17 18 19 20 21 22 23 24 25 26 27 28 29
000
FTUS42 KMFL 221455 AAA
TAFAPF
TAF AMD
KAPF 221455Z 2215/2312 02006KT P6SM FEW025 SCT250
     FM221700 32010KT P6SM VCTS SCT025CB BKN050
      TEMPO 2220/2224 3SM TSRA BKN025CB BKN040
     FM230000 VRB03KT P6SM VCSH SCT025 BKN050=

USA.gov is the U.S. government's official web portal to all federal, state and local government web resources and services.